createdAt,value
2019-03-28T00:01:20.184Z,12.30
2019-03-28T00:03:50.294Z,13.20
2019-03-28T00:06:20.414Z,12.57
2019-03-28T00:08:50.501Z,10.50
2019-03-28T00:11:20.588Z,10.90
2019-03-28T00:13:50.694Z,10.80
2019-03-28T00:16:20.802Z,12.40
2019-03-28T00:18:50.911Z,9.13
2019-03-28T00:21:20.962Z,12.00
2019-03-28T00:24:09.895Z,11.47
2019-03-28T00:26:40.114Z,10.63
2019-03-28T00:29:10.226Z,10.20
2019-03-28T00:31:40.335Z,11.60
2019-03-28T00:34:10.657Z,11.63
2019-03-28T00:36:40.709Z,11.53
2019-03-28T00:39:10.829Z,11.50
2019-03-28T00:41:40.927Z,10.57
2019-03-28T00:44:11.002Z,12.63
2019-03-28T00:46:41.093Z,12.37
2019-03-28T00:49:11.184Z,12.33
2019-03-28T00:51:43.130Z,11.90
2019-03-28T00:54:13.099Z,11.03
2019-03-28T00:56:47.169Z,10.10
2019-03-28T00:59:15.037Z,10.03
2019-03-28T01:01:45.098Z,10.70
2019-03-28T01:04:15.201Z,9.13
2019-03-28T01:06:45.269Z,8.93
2019-03-28T01:09:15.369Z,8.70
2019-03-28T01:11:45.473Z,9.00
2019-03-28T01:14:15.622Z,9.67
2019-03-28T01:16:45.718Z,9.00
2019-03-28T01:19:15.810Z,7.87
2019-03-28T01:21:45.925Z,7.87
2019-03-28T01:24:15.980Z,6.80
2019-03-28T01:26:56.551Z,7.67
2019-03-28T01:29:18.110Z,7.20
2019-03-28T01:31:48.271Z,7.23
2019-03-28T01:34:18.568Z,7.53
2019-03-28T01:36:48.726Z,8.13
2019-03-28T01:39:18.814Z,9.47
2019-03-28T01:41:48.929Z,9.93
2019-03-28T01:44:19.023Z,8.60
2019-03-28T01:46:49.291Z,9.10
2019-03-28T01:49:19.492Z,7.83
2019-03-28T01:51:49.589Z,9.23
2019-03-28T01:54:19.651Z,8.63
2019-03-28T01:56:49.756Z,8.20
2019-03-28T01:59:19.841Z,9.23
2019-03-28T02:01:50.012Z,9.73
2019-03-28T02:04:20.078Z,8.73
2019-03-28T02:06:50.170Z,8.10
2019-03-28T02:09:20.262Z,8.50
2019-03-28T02:11:50.338Z,8.83
2019-03-28T02:14:20.420Z,8.13
2019-03-28T02:16:50.565Z,8.50
2019-03-28T02:19:20.675Z,9.00
2019-03-28T02:21:50.843Z,9.43
2019-03-28T02:24:20.938Z,8.70
2019-03-28T02:26:51.005Z,8.53
2019-03-28T02:29:21.123Z,6.90
2019-03-28T02:31:51.211Z,8.33
2019-03-28T02:34:21.284Z,5.90
2019-03-28T02:36:51.346Z,6.27
2019-03-28T02:39:21.500Z,4.70
2019-03-28T02:41:51.686Z,4.47
2019-03-28T02:44:21.838Z,5.70
2019-03-28T02:46:52.031Z,5.60
2019-03-28T02:49:22.134Z,5.30
2019-03-28T02:51:52.371Z,5.10
2019-03-28T02:54:22.525Z,5.60
2019-03-28T02:56:52.816Z,5.80
2019-03-28T02:59:22.886Z,6.97
2019-03-28T03:01:52.960Z,7.67
2019-03-28T03:04:23.067Z,6.50
2019-03-28T03:06:53.128Z,5.70
2019-03-28T03:09:23.241Z,4.30
2019-03-28T03:11:53.409Z,4.30
2019-03-28T03:14:23.669Z,4.90
2019-03-28T03:16:53.773Z,4.40
2019-03-28T03:19:23.892Z,4.70
2019-03-28T03:21:54.150Z,5.10
2019-03-28T03:24:24.294Z,4.30
2019-03-28T03:26:54.496Z,4.70
2019-03-28T03:29:24.786Z,5.30
2019-03-28T03:31:54.945Z,5.10
2019-03-28T03:34:25.231Z,6.17
2019-03-28T03:36:55.485Z,6.43
2019-03-28T03:39:25.567Z,4.93
2019-03-28T03:41:55.826Z,4.90
2019-03-28T03:44:26.111Z,5.10
2019-03-28T03:46:56.265Z,5.40
2019-03-28T03:49:26.459Z,4.60
2019-03-28T03:51:56.710Z,4.73
2019-03-28T03:54:27.006Z,4.87
2019-03-28T03:56:57.155Z,4.70
2019-03-28T03:59:27.350Z,5.03
2019-03-28T04:01:57.424Z,4.57
2019-03-28T04:04:27.683Z,4.90
2019-03-28T04:06:57.817Z,4.37
2019-03-28T04:09:27.993Z,4.77
2019-03-28T04:11:58.289Z,4.20
2019-03-28T04:14:28.591Z,4.10
2019-03-28T04:16:58.832Z,3.63
2019-03-28T04:19:29.022Z,3.73
2019-03-28T04:21:59.146Z,3.43
2019-03-28T04:24:29.262Z,5.00
2019-03-28T04:26:59.380Z,4.60
2019-03-28T04:29:30.554Z,4.23
2019-03-28T04:32:00.973Z,3.60
2019-03-28T04:34:31.070Z,4.20
2019-03-28T04:37:01.150Z,2.93
2019-03-28T04:39:31.400Z,4.63
2019-03-28T04:42:01.555Z,3.00
2019-03-28T04:44:31.755Z,3.60
2019-03-28T04:47:01.864Z,3.30
2019-03-28T04:49:31.941Z,3.07
2019-03-28T04:52:02.020Z,3.83
2019-03-28T04:54:32.247Z,3.47
2019-03-28T04:57:02.350Z,3.63
2019-03-28T04:59:32.490Z,3.20
2019-03-28T05:02:03.718Z,3.50
2019-03-28T05:04:34.554Z,3.50
2019-03-28T05:07:04.686Z,3.60
2019-03-28T05:09:34.848Z,3.67
2019-03-28T05:12:05.184Z,3.50
2019-03-28T05:14:35.434Z,3.40
2019-03-28T05:17:05.525Z,3.43
2019-03-28T05:19:35.600Z,3.80
2019-03-28T05:22:05.723Z,3.50
2019-03-28T05:24:36.012Z,3.47
2019-03-28T05:27:06.164Z,4.10
2019-03-28T05:29:36.456Z,4.20
2019-03-28T05:32:06.609Z,4.10
2019-03-28T05:34:36.800Z,4.00
2019-03-28T05:37:06.936Z,4.00
2019-03-28T05:39:37.141Z,3.13
2019-03-28T05:42:07.291Z,3.90
2019-03-28T05:44:37.397Z,4.27
2019-03-28T05:47:07.635Z,3.90
2019-03-28T05:49:37.831Z,3.77
2019-03-28T05:52:08.057Z,3.70
2019-03-28T05:54:38.209Z,3.63
2019-03-28T05:57:08.389Z,3.37
2019-03-28T05:59:38.604Z,2.90
2019-03-28T06:02:09.344Z,2.50
2019-03-28T06:04:39.432Z,3.27
2019-03-28T06:07:10.294Z,2.20
2019-03-28T06:09:40.709Z,2.70
2019-03-28T06:12:10.977Z,3.00
2019-03-28T06:14:41.187Z,3.20
2019-03-28T06:17:11.391Z,2.67
2019-03-28T06:19:41.546Z,2.67
2019-03-28T06:22:11.712Z,2.30
2019-03-28T06:24:41.869Z,1.87
2019-03-28T06:27:12.072Z,2.30
2019-03-28T06:29:42.340Z,2.30
2019-03-28T06:32:12.625Z,2.63
2019-03-28T06:34:42.802Z,2.43
2019-03-28T06:37:12.877Z,2.53
2019-03-28T06:39:43.080Z,2.60
2019-03-28T06:42:13.213Z,2.70
2019-03-28T06:44:43.425Z,2.40
2019-03-28T06:47:13.516Z,2.20
2019-03-28T06:49:43.772Z,2.53
2019-03-28T06:52:13.919Z,2.50
2019-03-28T06:54:44.207Z,2.27
2019-03-28T06:57:14.360Z,1.93
2019-03-28T06:59:44.549Z,2.80
2019-03-28T07:02:14.646Z,2.90
2019-03-28T07:04:44.888Z,1.87
2019-03-28T07:07:18.225Z,2.10
2019-03-28T07:09:46.920Z,2.20
2019-03-28T07:12:17.234Z,2.23
2019-03-28T07:14:47.413Z,1.80
2019-03-28T07:17:17.575Z,1.83
2019-03-28T07:19:47.666Z,2.33
2019-03-28T07:22:17.855Z,2.20
2019-03-28T07:24:48.202Z,2.00
2019-03-28T07:27:18.460Z,1.63
2019-03-28T07:29:51.055Z,1.90
2019-03-28T07:32:20.744Z,1.70
2019-03-28T07:34:50.935Z,2.10
2019-03-28T07:37:21.183Z,2.00
2019-03-28T07:39:51.478Z,1.87
2019-03-28T07:42:21.707Z,2.10
2019-03-28T07:44:51.963Z,1.60
2019-03-28T07:47:22.146Z,1.90
2019-03-28T07:49:52.248Z,1.73
2019-03-28T07:52:22.387Z,1.70
2019-03-28T07:54:52.638Z,2.17
2019-03-28T07:57:22.755Z,1.70
2019-03-28T08:00:03.475Z,2.10
2019-03-28T08:02:24.804Z,2.00
2019-03-28T08:04:54.946Z,1.80
2019-03-28T08:07:25.147Z,2.03
2019-03-28T08:09:55.412Z,2.27
2019-03-28T08:12:25.590Z,2.30
2019-03-28T08:14:55.681Z,2.07
2019-03-28T08:17:25.744Z,2.30
2019-03-28T08:19:55.926Z,1.80
2019-03-28T08:22:29.533Z,2.70
2019-03-28T08:24:58.279Z,2.80
2019-03-28T08:27:28.459Z,2.93
2019-03-28T08:29:58.585Z,3.00
2019-03-28T08:32:29.005Z,2.20
2019-03-28T08:34:59.240Z,2.60
2019-03-28T08:37:29.335Z,1.90
2019-03-28T08:39:59.805Z,2.20
2019-03-28T08:42:29.905Z,3.00
2019-03-28T08:44:59.988Z,2.20
2019-03-28T08:47:30.127Z,2.03
2019-03-28T08:50:00.428Z,2.20
2019-03-28T08:52:30.704Z,2.40
2019-03-28T08:55:00.801Z,2.20
2019-03-28T08:57:30.873Z,2.50
2019-03-28T09:00:00.996Z,2.60
2019-03-28T09:02:31.085Z,2.67
2019-03-28T09:05:01.155Z,2.37
2019-03-28T09:07:31.255Z,2.20
2019-03-28T09:10:01.327Z,3.07
2019-03-28T09:12:34.856Z,3.03
2019-03-28T09:15:03.251Z,2.90
2019-03-28T09:17:33.322Z,2.43
2019-03-28T09:20:03.427Z,2.60
2019-03-28T09:22:33.514Z,1.90
2019-03-28T09:25:03.683Z,2.27
2019-03-28T09:27:33.776Z,2.40
2019-03-28T09:30:03.903Z,2.77
2019-03-28T09:32:34.169Z,2.17
2019-03-28T09:35:04.735Z,2.40
2019-03-28T09:37:34.965Z,5.57
2019-03-28T09:40:05.122Z,2.30
2019-03-28T09:42:35.211Z,2.43
2019-03-28T09:45:05.965Z,2.77
2019-03-28T09:47:36.060Z,2.20
2019-03-28T09:50:06.154Z,1.77
2019-03-28T09:52:36.350Z,2.67
2019-03-28T09:55:06.705Z,2.20
2019-03-28T09:57:36.805Z,2.13
2019-03-28T10:00:07.540Z,1.90
2019-03-28T10:02:37.647Z,2.33
2019-03-28T10:05:07.968Z,2.43
2019-03-28T10:07:38.593Z,2.17
2019-03-28T10:10:09.399Z,2.37
2019-03-28T10:12:39.477Z,1.90
2019-03-28T10:15:09.704Z,2.20
2019-03-28T10:17:42.365Z,2.20
2019-03-28T10:20:11.628Z,2.00
2019-03-28T10:22:41.729Z,2.00
2019-03-28T10:25:13.052Z,2.30
2019-03-28T10:27:44.361Z,2.00
2019-03-28T10:30:14.481Z,1.97
2019-03-28T10:32:44.640Z,2.20
2019-03-28T10:35:27.309Z,2.50
2019-03-28T10:37:57.391Z,2.97
2019-03-28T10:40:27.478Z,2.63
2019-03-28T10:42:57.633Z,3.20
2019-03-28T10:45:27.902Z,2.17
2019-03-28T10:47:58.019Z,2.23
2019-03-28T10:50:40.193Z,2.90
2019-03-28T10:52:59.874Z,3.27
2019-03-28T10:55:29.970Z,3.40
2019-03-28T10:58:00.146Z,2.40
2019-03-28T11:00:30.255Z,2.60
2019-03-28T11:03:00.454Z,2.73
2019-03-28T11:05:30.486Z,2.40
2019-03-28T11:08:00.593Z,3.03
2019-03-28T11:10:30.779Z,2.80
2019-03-28T11:13:00.852Z,3.43
2019-03-28T11:15:30.935Z,2.80
2019-03-28T11:18:01.039Z,2.70
2019-03-28T11:20:31.126Z,2.27
2019-03-28T11:23:02.363Z,1.93
2019-03-28T11:25:32.494Z,2.27
2019-03-28T11:28:02.637Z,2.87
2019-03-28T11:30:32.686Z,3.17
2019-03-28T11:33:06.225Z,2.50
2019-03-28T11:35:34.678Z,2.80
2019-03-28T11:38:05.214Z,2.50
2019-03-28T11:40:35.287Z,2.90
2019-03-28T11:43:05.494Z,2.90
2019-03-28T11:45:35.603Z,2.30
2019-03-28T11:48:05.682Z,2.20
2019-03-28T11:50:35.794Z,3.27
2019-03-28T11:53:05.878Z,2.03
2019-03-28T11:55:36.025Z,3.07
2019-03-28T11:58:06.224Z,2.90
2019-03-28T12:00:36.368Z,2.20
2019-03-28T12:03:06.458Z,2.60
2019-03-28T12:05:36.558Z,3.07
2019-03-28T12:08:06.686Z,2.30
2019-03-28T12:10:36.810Z,2.63
2019-03-28T12:13:06.891Z,2.20
2019-03-28T12:15:36.994Z,2.00
2019-03-28T12:18:07.094Z,2.03
2019-03-28T12:20:37.203Z,2.60
2019-03-28T12:23:07.280Z,2.87
2019-03-28T12:25:37.381Z,2.73
2019-03-28T12:28:07.456Z,2.67
2019-03-28T12:30:37.548Z,2.87
2019-03-28T12:33:07.649Z,3.03
2019-03-28T12:35:37.730Z,2.70
2019-03-28T12:38:07.845Z,2.40
2019-03-28T12:40:37.979Z,2.30
2019-03-28T12:43:08.077Z,2.50
2019-03-28T12:45:38.180Z,2.53
2019-03-28T12:48:08.262Z,3.03
2019-03-28T12:50:38.347Z,2.23
2019-03-28T12:53:08.407Z,2.87
2019-03-28T12:55:38.599Z,2.87
2019-03-28T12:58:08.693Z,2.90
2019-03-28T13:00:39.146Z,2.47
2019-03-28T13:03:09.230Z,2.40
2019-03-28T13:05:39.330Z,2.60
2019-03-28T13:08:09.507Z,2.60
2019-03-28T13:10:39.705Z,3.00
2019-03-28T13:13:09.794Z,2.30
2019-03-28T13:15:39.885Z,2.40
2019-03-28T13:18:09.956Z,2.47
2019-03-28T13:20:40.072Z,2.50
2019-03-28T13:23:10.149Z,2.20
2019-03-28T13:25:40.231Z,2.73
2019-03-28T13:28:10.331Z,2.20
2019-03-28T13:30:40.484Z,1.83
2019-03-28T13:33:10.583Z,2.30
2019-03-28T13:35:40.687Z,2.50
2019-03-28T13:38:10.785Z,1.90
2019-03-28T13:40:40.854Z,2.20
2019-03-28T13:43:10.943Z,1.73
2019-03-28T13:45:41.019Z,1.80
2019-03-28T13:48:13.708Z,2.27
2019-03-28T13:50:42.916Z,2.60
2019-03-28T13:53:13.005Z,2.17
2019-03-28T13:55:43.077Z,1.90
2019-03-28T13:58:13.873Z,2.03
2019-03-28T14:00:44.106Z,2.30
2019-03-28T14:03:14.221Z,1.80
2019-03-28T14:05:44.287Z,1.90
2019-03-28T14:08:14.640Z,1.73
2019-03-28T14:10:44.945Z,1.60
2019-03-28T14:13:15.018Z,2.10
2019-03-28T14:15:45.114Z,1.57
2019-03-28T14:18:15.300Z,2.23
2019-03-28T14:20:45.355Z,1.90
2019-03-28T14:23:15.447Z,1.63
2019-03-28T14:25:45.539Z,2.20
2019-03-28T14:28:15.714Z,2.07
2019-03-28T14:30:45.931Z,2.77
2019-03-28T14:33:16.247Z,1.97
2019-03-28T14:35:46.479Z,1.90
2019-03-28T14:38:16.559Z,1.67
2019-03-28T14:40:46.640Z,1.67
2019-03-28T14:43:16.815Z,1.80
2019-03-28T14:45:46.919Z,1.87
2019-03-28T14:48:17.015Z,1.90
2019-03-28T14:50:47.226Z,1.90
2019-03-28T14:53:17.337Z,1.93
2019-03-28T14:55:47.427Z,1.70
2019-03-28T14:58:17.552Z,1.90
2019-03-28T15:00:49.045Z,1.67
2019-03-28T15:03:26.198Z,1.73
2019-03-28T15:05:51.000Z,2.00
2019-03-28T15:08:21.055Z,1.60
2019-03-28T15:10:51.153Z,1.80
2019-03-28T15:13:21.233Z,2.00
2019-03-28T15:15:53.562Z,1.53
2019-03-28T15:18:23.651Z,1.87
2019-03-28T15:20:53.816Z,1.63
2019-03-28T15:23:23.901Z,1.80
2019-03-28T15:25:53.988Z,1.60
2019-03-28T15:28:24.072Z,2.20
2019-03-28T15:30:54.161Z,1.70
2019-03-28T15:33:24.235Z,1.83
2019-03-28T15:35:54.407Z,1.80
2019-03-28T15:38:24.519Z,1.43
2019-03-28T15:40:54.607Z,2.17
2019-03-28T15:43:24.722Z,1.70
2019-03-28T15:45:54.831Z,1.97
2019-03-28T15:48:24.967Z,2.07
2019-03-28T15:50:55.131Z,1.67
2019-03-28T15:53:25.241Z,1.93
2019-03-28T15:55:55.427Z,2.40
2019-03-28T15:58:25.521Z,1.10
2019-03-28T16:00:55.660Z,1.80
2019-03-28T16:03:25.765Z,1.70
2019-03-28T16:05:58.599Z,1.63
2019-03-28T16:08:28.022Z,1.80
2019-03-28T16:10:58.073Z,4.17
2019-03-28T16:13:28.211Z,2.20
2019-03-28T16:15:58.305Z,1.50
2019-03-28T16:18:28.413Z,1.90
2019-03-28T16:20:58.498Z,1.63
2019-03-28T16:23:29.482Z,1.73
2019-03-28T16:25:59.763Z,1.90
2019-03-28T16:28:29.997Z,1.93
2019-03-28T16:31:00.193Z,1.87
2019-03-28T16:33:30.475Z,1.53
2019-03-28T16:36:00.545Z,2.20
2019-03-28T16:38:32.885Z,2.00
2019-03-28T16:41:02.450Z,2.30
2019-03-28T16:43:32.644Z,2.60
2019-03-28T16:46:02.693Z,3.27
2019-03-28T16:48:32.855Z,2.20
2019-03-28T16:51:02.955Z,2.20
2019-03-28T16:53:33.101Z,2.47
2019-03-28T16:56:03.182Z,10.97
2019-03-28T16:58:33.339Z,9.90
2019-03-28T17:01:03.418Z,12.10
2019-03-28T17:03:33.528Z,13.37
2019-03-28T17:06:03.721Z,12.57
2019-03-28T17:08:33.996Z,9.50
2019-03-28T17:11:04.113Z,10.97
2019-03-28T17:13:34.219Z,11.33
2019-03-28T17:16:04.355Z,261.53
2019-03-28T17:18:34.577Z,122.63
2019-03-28T17:21:04.678Z,29.70
2019-03-28T17:23:34.778Z,28.43
2019-03-28T17:26:05.432Z,29.10
2019-03-28T17:28:35.539Z,28.90
2019-03-28T17:31:05.640Z,32.10
2019-03-28T17:33:35.801Z,28.20
2019-03-28T17:36:06.002Z,20.60
2019-03-28T17:38:36.126Z,20.00
2019-03-28T17:41:06.741Z,16.93
2019-03-28T17:43:36.996Z,20.30
2019-03-28T17:46:07.133Z,22.07
2019-03-28T17:48:37.210Z,22.83
2019-03-28T17:51:07.419Z,30.30
2019-03-28T17:53:37.568Z,32.27
2019-03-28T17:56:07.607Z,29.13
2019-03-28T17:58:37.741Z,29.47
2019-03-28T18:01:08.294Z,29.47
2019-03-28T18:03:38.401Z,29.37
2019-03-28T18:06:08.843Z,33.50
2019-03-28T18:08:39.065Z,41.57
2019-03-28T18:11:09.143Z,38.10
2019-03-28T18:13:39.354Z,31.27
2019-03-28T18:16:09.704Z,31.90
2019-03-28T18:18:40.291Z,34.60
2019-03-28T18:21:10.384Z,28.83
2019-03-28T18:23:40.607Z,27.17
2019-03-28T18:26:10.761Z,27.73
2019-03-28T18:28:40.895Z,28.30
2019-03-28T18:31:12.093Z,29.90
2019-03-28T18:33:45.285Z,34.10
2019-03-28T18:36:16.895Z,37.40
2019-03-28T18:38:47.080Z,35.03
2019-03-28T18:41:17.227Z,28.97
2019-03-28T18:43:47.394Z,29.40
2019-03-28T18:46:17.488Z,32.20
2019-03-28T18:48:47.953Z,30.37
2019-03-28T18:51:18.849Z,30.10
2019-03-28T18:53:48.933Z,40.03
2019-03-28T18:56:19.132Z,45.63
2019-03-28T18:58:49.229Z,42.00
2019-03-28T19:01:19.351Z,37.10
2019-03-28T19:03:49.554Z,34.50
2019-03-28T19:06:19.739Z,35.40
2019-03-28T19:08:49.862Z,27.47
2019-03-28T19:11:20.078Z,24.77
2019-03-28T19:13:50.180Z,25.50
2019-03-28T19:16:21.809Z,24.43
2019-03-28T19:18:52.155Z,17.30
2019-03-28T19:21:22.266Z,22.57
2019-03-28T19:23:52.377Z,23.87
2019-03-28T19:26:22.464Z,27.10
2019-03-28T19:28:52.565Z,28.77
2019-03-28T19:31:22.627Z,28.60
2019-03-28T19:33:52.737Z,25.57
2019-03-28T19:36:22.987Z,21.47
2019-03-28T19:38:53.279Z,28.63
2019-03-28T19:41:24.608Z,21.40
2019-03-28T19:43:54.962Z,26.27
2019-03-28T19:46:25.154Z,33.57
2019-03-28T19:48:55.267Z,27.13
2019-03-28T19:51:28.211Z,20.60
2019-03-28T19:53:57.209Z,24.90
2019-03-28T19:56:27.301Z,21.40
2019-03-28T19:58:57.620Z,23.37
2019-03-28T20:01:28.191Z,21.33
2019-03-28T20:03:58.323Z,25.30
2019-03-28T20:06:28.403Z,23.10
2019-03-28T20:08:58.562Z,21.77
2019-03-28T20:11:28.627Z,17.13
2019-03-28T20:13:58.719Z,16.80
2019-03-28T20:16:28.806Z,15.77
2019-03-28T20:18:58.925Z,14.90
2019-03-28T20:21:29.009Z,13.50
2019-03-28T20:23:59.258Z,11.57
2019-03-28T20:26:29.850Z,10.90
2019-03-28T20:29:00.226Z,9.93
2019-03-28T20:31:31.421Z,8.97
2019-03-28T20:34:01.472Z,11.40
2019-03-28T20:36:38.586Z,9.80
2019-03-28T20:39:06.194Z,8.03
2019-03-28T20:41:36.681Z,7.27
2019-03-28T20:44:06.785Z,7.27
2019-03-28T20:46:36.914Z,6.40
2019-03-28T20:49:07.033Z,6.87
2019-03-28T20:51:37.230Z,7.03
2019-03-28T20:54:10.135Z,7.97
2019-03-28T20:56:40.252Z,7.50
2019-03-28T20:59:10.397Z,8.20
2019-03-28T21:01:42.582Z,8.33
2019-03-28T21:04:12.275Z,8.10
2019-03-28T21:06:42.490Z,7.40
2019-03-28T21:09:12.576Z,8.40
2019-03-28T21:11:42.690Z,8.07
2019-03-28T21:14:12.786Z,6.97
2019-03-28T21:16:42.881Z,7.10
2019-03-28T21:19:12.960Z,7.10
2019-03-28T21:21:44.529Z,8.63
2019-03-28T21:24:14.841Z,8.00
2019-03-28T21:26:46.050Z,8.33
2019-03-28T21:29:16.711Z,7.00
2019-03-28T21:31:50.008Z,7.73
2019-03-28T21:34:18.726Z,7.00
2019-03-28T21:36:48.901Z,7.50
2019-03-28T21:39:18.978Z,8.37
2019-03-28T21:41:49.070Z,7.73
2019-03-28T21:44:19.161Z,8.90
2019-03-28T21:46:49.329Z,10.40
2019-03-28T21:49:19.548Z,9.07
2019-03-28T21:51:49.636Z,8.60
2019-03-28T21:54:19.727Z,8.70
2019-03-28T21:56:50.037Z,8.50
2019-03-28T21:59:20.994Z,9.50
2019-03-28T22:01:51.176Z,7.30
2019-03-28T22:04:21.252Z,7.40
2019-03-28T22:06:51.478Z,7.77
2019-03-28T22:09:21.562Z,7.77
2019-03-28T22:11:51.639Z,7.43
2019-03-28T22:14:21.690Z,7.77
2019-03-28T22:16:51.773Z,7.77
2019-03-28T22:19:21.863Z,6.30
2019-03-28T22:21:51.964Z,7.10
2019-03-28T22:24:22.007Z,7.27
2019-03-28T22:26:52.101Z,6.47
2019-03-28T22:29:22.205Z,7.60
2019-03-28T22:31:52.326Z,7.80
2019-03-28T22:34:22.408Z,6.00
2019-03-28T22:36:57.487Z,7.37
2019-03-28T22:39:24.328Z,7.30
2019-03-28T22:41:54.526Z,6.47
2019-03-28T22:44:24.958Z,7.63
2019-03-28T22:46:55.333Z,6.63
2019-03-28T22:49:25.433Z,6.70
2019-03-28T22:51:55.509Z,8.33
2019-03-28T22:54:25.613Z,6.50
2019-03-28T22:56:55.718Z,8.13
2019-03-28T22:59:26.892Z,7.50
2019-03-28T23:01:57.278Z,7.10
2019-03-28T23:04:27.368Z,6.10
2019-03-28T23:07:10.106Z,7.63
2019-03-28T23:09:29.306Z,6.13
2019-03-28T23:11:59.488Z,5.97
2019-03-28T23:14:29.587Z,6.50
2019-03-28T23:16:59.694Z,5.80
2019-03-28T23:19:29.785Z,6.30
2019-03-28T23:21:59.895Z,7.30
2019-03-28T23:24:29.999Z,6.00
2019-03-28T23:27:00.873Z,7.50
2019-03-28T23:29:31.087Z,6.93
2019-03-28T23:32:01.202Z,8.17
2019-03-28T23:34:31.312Z,6.07
2019-03-28T23:37:01.396Z,6.67
2019-03-28T23:39:31.510Z,6.03
2019-03-28T23:42:01.657Z,5.70
2019-03-28T23:44:31.731Z,6.80
2019-03-28T23:47:01.811Z,5.80
2019-03-28T23:49:31.852Z,6.17
2019-03-28T23:52:01.954Z,5.40
2019-03-28T23:54:32.042Z,6.10
2019-03-28T23:57:02.991Z,5.60
2019-03-28T23:59:33.139Z,5.20
